Asterion — FICK — position and weather

sailwx.info

Track history (hours):
 
Tides and Currents Weather Stations Pressure Air Temp Water Temp Dewpoint Dewpoint Depression Visibility Wind Speed Wind Dir Waves Ship Positions

Asterion

Last reported at 2015-Apr-01 10:33 UTC. Time now 2015-Apr-01 13:12 UTC.
Position N 36°28' E 014°43'.

Length 184 m; draft 11 m.

Type: Tanker. MMSI: 226000000.

Date/timePositionNaut miles runAvg speedWind from/ knotsBaromVisibWave heightAir tempDewpointWater temp
2015-Apr-01 10:33N 36°28' E 014°43'1413.6
2015-Apr-01 09:33N 36°29' E 014°26'1513.8
2015-Apr-01 08:30N 36°33' E 014°08'1314.0
2015-Apr-01 07:33N 36°37' E 013°53'1414.1
2015-Apr-01 06:33N 36°42' E 013°36'3013.7
2015-Apr-01 04:24N 36°51' E 013°01'48013.8
2015-Mar-30 17:32N 37°07' E 003°00'1313.7
2015-Mar-30 16:33N 37°04' E 002°43'1413.9
2015-Mar-30 15:30N 37°02' E 002°26'6014.9
2015-Mar-30 11:28N 36°52' E 001°11'6114.2
2015-Mar-30 07:08N 36°41' W 000°04'813.8
2015-Mar-30 06:32N 36°39' W 000°14'1414.3
2015-Mar-30 05:33N 36°36' W 000°31'1414.3
2015-Mar-30 04:33N 36°34' W 000°49'1414.2
2015-Mar-30 03:33N 36°31' W 001°06'19914.2
2015-Mar-29 13:33N 36°01' W 005°10'1212.0
2015-Mar-29 12:33N 36°08' W 005°23'1 0.4
2015-Mar-29 09:33N 36°09' W 005°23'0 0.0
2015-Mar-29 08:27N 36°09' W 005°23'0 0.1
2015-Mar-29 07:33N 36°09' W 005°23'3 3.3
2015-Mar-29 06:34N 36°06' W 005°22'9 9.0
2015-Mar-29 05:34N 35°58' W 005°28'7214.2
2015-Mar-29 00:29N 36°01' W 006°57'1314.2
2015-Mar-28 23:33N 36°03' W 007°13'1714.3
2015-Mar-28 22:23N 36°08' W 007°33'1314.4
2015-Mar-28 21:27N 36°11' W 007°49'1314.2
2015-Mar-28 20:32N 36°15' W 008°04'1614.1
2015-Mar-28 19:26N 36°19' W 008°23'1214.0
2015-Mar-28 18:34N 36°22' W 008°38'1414.0
2015-Mar-28 17:33N 36°25' W 008°55'1414.2
2015-Mar-28 16:33N 36°28' W 009°12'1413.9
2015-Mar-28 15:33N 36°36' W 009°27'1514.5
2015-Mar-28 14:33N 36°47' W 009°38'1414.2
2015-Mar-28 13:32N 37°01' W 009°42'1414.0
2015-Mar-28 12:33N 37°15' W 009°46'1413.9
2015-Mar-28 11:33N 37°28' W 009°50'1414.1
2015-Mar-28 10:33N 37°42' W 009°54'1414.1
2015-Mar-28 09:33N 37°56' W 009°58'1414.2
2015-Mar-28 08:33N 38°09' W 010°01'1414.1
2015-Mar-28 07:33N 38°23' W 010°06'1414.0
2015-Mar-28 06:33N 38°37' W 010°10'1414.2
2015-Mar-28 05:33N 38°51' W 010°12'1414.4
2015-Mar-28 04:33N 39°05' W 010°12'1414.4
2015-Mar-28 03:34N 39°19' W 010°11'1514.4
2015-Mar-28 02:33N 39°34' W 010°11'1714.0
2015-Mar-28 01:21N 39°51' W 010°12'  
2015-Mar-25 20:15N 50°02' W 002°53'8215.9
2015-Mar-25 15:05N 50°23' W 000°49'3612.7
2015-Mar-25 12:14N 50°32' E 000°06'811.9
2015-Mar-25 11:33N 50°34' E 000°18'1212.1
2015-Mar-25 10:33N 50°38' E 000°36'1312.6
2015-Mar-25 09:33N 50°45' E 000°53'1613.5
2015-Mar-25 08:24N 50°55' E 001°12'1113.5
2015-Mar-25 07:33N 51°03' E 001°25'1313.0
2015-Mar-25 06:34N 51°11' E 001°41'1312.6
2015-Mar-25 05:34N 51°22' E 001°52'1110.5
2015-Mar-25 04:33N 51°23' E 002°09'1211.5
2015-Mar-25 03:33N 51°23' E 002°28'1111.5
2015-Mar-25 02:33N 51°22' E 002°46'1212.1
2015-Mar-25 01:34N 51°24' E 003°05'1212.4
2015-Mar-25 00:33N 51°25' E 003°25'1010.2
2015-Mar-24 23:33N 51°26' E 003°41'1010.2
2015-Mar-24 22:34N 51°23' E 003°56'8 8.0
2015-Mar-24 21:34N 51°23' E 004°09'5 5.4
2015-Mar-24 20:34N 51°21' E 004°17'0 0.3
2015-Mar-24 19:34N 51°21' E 004°18'0 0.4
2015-Mar-24 18:33N 51°20' E 004°18'0 0.0
2015-Mar-24 17:28N 51°20' E 004°18'0 0.0
2015-Mar-24 16:34N 51°20' E 004°18'0 0.0
2015-Mar-24 15:31N 51°20' E 004°18'0 0.0
2015-Mar-24 14:31N 51°20' E 004°18'0 0.0
2015-Mar-24 13:34N 51°20' E 004°18'0 0.0
2015-Mar-24 12:28N 51°20' E 004°18'  
Track history (hours):
 
Tides and Currents Weather Stations Pressure Air Temp Water Temp Dewpoint Dewpoint Depression Visibility Wind Speed Wind Dir Waves Ship Positions

Asterion

Last reported at 2015-Apr-01 10:33 UTC. Time now 2015-Apr-01 13:12 UTC.
Position N 36°28' E 014°43'.

Length 184 m; draft 11 m.

Type: Tanker. MMSI: 226000000.

Date/timePositionNaut miles runAvg speedWind from/ knotsBaromVisibWave heightAir tempDewpointWater temp
2015-Apr-01 10:33N 36°28' E 014°43'1413.6
2015-Apr-01 09:33N 36°29' E 014°26'1513.8
2015-Apr-01 08:30N 36°33' E 014°08'1314.0
2015-Apr-01 07:33N 36°37' E 013°53'1414.1
2015-Apr-01 06:33N 36°42' E 013°36'3013.7
2015-Apr-01 04:24N 36°51' E 013°01'48013.8
2015-Mar-30 17:32N 37°07' E 003°00'1313.7
2015-Mar-30 16:33N 37°04' E 002°43'1413.9
2015-Mar-30 15:30N 37°02' E 002°26'6014.9
2015-Mar-30 11:28N 36°52' E 001°11'6114.2
2015-Mar-30 07:08N 36°41' W 000°04'813.8
2015-Mar-30 06:32N 36°39' W 000°14'1414.3
2015-Mar-30 05:33N 36°36' W 000°31'1414.3
2015-Mar-30 04:33N 36°34' W 000°49'1414.2
2015-Mar-30 03:33N 36°31' W 001°06'19914.2
2015-Mar-29 13:33N 36°01' W 005°10'1212.0
2015-Mar-29 12:33N 36°08' W 005°23'1 0.4
2015-Mar-29 09:33N 36°09' W 005°23'0 0.0
2015-Mar-29 08:27N 36°09' W 005°23'0 0.1
2015-Mar-29 07:33N 36°09' W 005°23'3 3.3
2015-Mar-29 06:34N 36°06' W 005°22'9 9.0
2015-Mar-29 05:34N 35°58' W 005°28'7214.2
2015-Mar-29 00:29N 36°01' W 006°57'1314.2
2015-Mar-28 23:33N 36°03' W 007°13'1714.3
2015-Mar-28 22:23N 36°08' W 007°33'1314.4
2015-Mar-28 21:27N 36°11' W 007°49'1314.2
2015-Mar-28 20:32N 36°15' W 008°04'1614.1
2015-Mar-28 19:26N 36°19' W 008°23'1214.0
2015-Mar-28 18:34N 36°22' W 008°38'1414.0
2015-Mar-28 17:33N 36°25' W 008°55'1414.2
2015-Mar-28 16:33N 36°28' W 009°12'1413.9
2015-Mar-28 15:33N 36°36' W 009°27'1514.5
2015-Mar-28 14:33N 36°47' W 009°38'1414.2
2015-Mar-28 13:32N 37°01' W 009°42'1414.0
2015-Mar-28 12:33N 37°15' W 009°46'1413.9
2015-Mar-28 11:33N 37°28' W 009°50'1414.1
2015-Mar-28 10:33N 37°42' W 009°54'1414.1
2015-Mar-28 09:33N 37°56' W 009°58'1414.2
2015-Mar-28 08:33N 38°09' W 010°01'1414.1
2015-Mar-28 07:33N 38°23' W 010°06'1414.0
2015-Mar-28 06:33N 38°37' W 010°10'1414.2
2015-Mar-28 05:33N 38°51' W 010°12'1414.4
2015-Mar-28 04:33N 39°05' W 010°12'1414.4
2015-Mar-28 03:34N 39°19' W 010°11'1514.4
2015-Mar-28 02:33N 39°34' W 010°11'1714.0
2015-Mar-28 01:21N 39°51' W 010°12'  
2015-Mar-25 20:15N 50°02' W 002°53'8215.9
2015-Mar-25 15:05N 50°23' W 000°49'3612.7
2015-Mar-25 12:14N 50°32' E 000°06'811.9
2015-Mar-25 11:33N 50°34' E 000°18'1212.1
2015-Mar-25 10:33N 50°38' E 000°36'1312.6
2015-Mar-25 09:33N 50°45' E 000°53'1613.5
2015-Mar-25 08:24N 50°55' E 001°12'1113.5
2015-Mar-25 07:33N 51°03' E 001°25'1313.0
2015-Mar-25 06:34N 51°11' E 001°41'1312.6
2015-Mar-25 05:34N 51°22' E 001°52'1110.5
2015-Mar-25 04:33N 51°23' E 002°09'1211.5
2015-Mar-25 03:33N 51°23' E 002°28'1111.5
2015-Mar-25 02:33N 51°22' E 002°46'1212.1
2015-Mar-25 01:34N 51°24' E 003°05'1212.4
2015-Mar-25 00:33N 51°25' E 003°25'1010.2
2015-Mar-24 23:33N 51°26' E 003°41'1010.2
2015-Mar-24 22:34N 51°23' E 003°56'8 8.0
2015-Mar-24 21:34N 51°23' E 004°09'5 5.4
2015-Mar-24 20:34N 51°21' E 004°17'0 0.3
2015-Mar-24 19:34N 51°21' E 004°18'0 0.4
2015-Mar-24 18:33N 51°20' E 004°18'0 0.0
2015-Mar-24 17:28N 51°20' E 004°18'0 0.0
2015-Mar-24 16:34N 51°20' E 004°18'0 0.0
2015-Mar-24 15:31N 51°20' E 004°18'0 0.0
2015-Mar-24 14:31N 51°20' E 004°18'0 0.0
2015-Mar-24 13:34N 51°20' E 004°18'0 0.0
2015-Mar-24 12:28N 51°20' E 004°18'  

Dump ship's entire track history